createdAt,value
2023-03-21T00:03:33.981Z,10.40
2023-03-21T00:07:40.703Z,10.30
2023-03-21T00:11:48.156Z,10.30
2023-03-21T00:16:05.986Z,10.30
2023-03-21T00:20:16.932Z,10.20
2023-03-21T00:24:23.728Z,10.30
2023-03-21T00:28:30.354Z,10.30
2023-03-21T00:32:45.802Z,10.30
2023-03-21T00:36:56.203Z,10.30
2023-03-21T00:41:23.325Z,10.30
2023-03-21T00:45:32.886Z,10.40
2023-03-21T00:49:39.688Z,10.40
2023-03-21T00:53:46.732Z,10.30
2023-03-21T00:58:01.590Z,10.30
2023-03-21T01:02:09.077Z,10.20
2023-03-21T01:06:19.373Z,10.20
2023-03-21T01:10:26.433Z,10.20
2023-03-21T01:14:33.098Z,10.20
2023-03-21T01:18:41.278Z,10.20
2023-03-21T01:22:47.920Z,10.20
2023-03-21T01:26:54.587Z,10.20
2023-03-21T01:31:02.950Z,10.30
2023-03-21T01:35:09.708Z,10.20
2023-03-21T01:39:16.395Z,10.20
2023-03-21T01:43:30.725Z,10.20
2023-03-21T01:47:37.388Z,10.20
2023-03-21T01:51:58.646Z,10.10
2023-03-21T01:56:29.795Z,10.20
2023-03-21T02:00:37.200Z,10.20
2023-03-21T02:04:55.880Z,10.20
2023-03-21T02:09:08.645Z,10.20
2023-03-21T02:13:16.201Z,10.20
2023-03-21T02:17:41.747Z,10.20
2023-03-21T02:22:16.599Z,10.20
2023-03-21T02:27:03.462Z,10.20
2023-03-21T02:31:32.787Z,10.10
2023-03-21T02:36:14.007Z,10.20
2023-03-21T02:40:30.778Z,10.10
2023-03-21T02:44:51.473Z,10.10
2023-03-21T02:49:13.035Z,10.10
2023-03-21T02:53:23.218Z,10.10
2023-03-21T02:57:41.810Z,10.10
2023-03-21T03:01:52.636Z,10.20
2023-03-21T03:06:01.649Z,10.10
2023-03-21T03:10:33.593Z,10.10
2023-03-21T03:15:04.166Z,10.10
2023-03-21T03:19:18.538Z,10.20
2023-03-21T03:23:31.842Z,10.20
2023-03-21T03:27:42.400Z,10.10
2023-03-21T03:31:56.848Z,10.20
2023-03-21T03:36:07.137Z,10.20
2023-03-21T03:40:29.578Z,10.10
2023-03-21T03:44:37.100Z,10.10
2023-03-21T03:48:50.478Z,10.20
2023-03-21T03:53:18.329Z,10.10
2023-03-21T03:57:26.311Z,10.20
2023-03-21T04:01:34.862Z,10.10
2023-03-21T04:05:42.115Z,10.20
2023-03-21T04:09:48.907Z,10.10
2023-03-21T04:13:55.700Z,10.20
2023-03-21T04:18:03.199Z,10.10
2023-03-21T04:22:09.957Z,10.20
2023-03-21T04:26:16.671Z,10.10
2023-03-21T04:30:24.870Z,10.10
2023-03-21T04:34:31.505Z,10.10
2023-03-21T04:38:38.397Z,10.20
2023-03-21T04:42:46.411Z,10.20
2023-03-21T04:46:53.304Z,10.20
2023-03-21T04:51:00.121Z,10.10
2023-03-21T04:55:10.047Z,10.10
2023-03-21T04:59:17.047Z,10.10
2023-03-21T05:03:25.035Z,10.00
2023-03-21T05:07:32.732Z,11.00
2023-03-21T05:11:41.150Z,10.10
2023-03-21T05:15:47.925Z,10.00
2023-03-21T05:19:56.476Z,10.00
2023-03-21T05:24:03.610Z,10.00
2023-03-21T05:28:10.293Z,10.00
2023-03-21T05:32:16.952Z,10.00
2023-03-21T05:36:23.774Z,10.00
2023-03-21T05:40:30.651Z,10.00
2023-03-21T05:44:37.648Z,10.00
2023-03-21T05:48:44.310Z,10.00
2023-03-21T05:52:51.118Z,9.90
2023-03-21T05:56:57.759Z,9.90
2023-03-21T06:01:04.686Z,10.00
2023-03-21T06:05:11.439Z,10.00
2023-03-21T06:09:18.098Z,10.00
2023-03-21T06:13:24.788Z,10.00
2023-03-21T06:17:32.104Z,10.00
2023-03-21T06:21:38.965Z,10.00
2023-03-21T06:25:45.605Z,10.00
2023-03-21T06:29:52.895Z,10.00
2023-03-21T06:33:59.556Z,10.00
2023-03-21T06:38:07.054Z,10.00
2023-03-21T06:42:14.780Z,10.10
2023-03-21T06:46:21.539Z,10.10
2023-03-21T06:50:28.182Z,10.10
2023-03-21T06:54:34.959Z,10.10
2023-03-21T06:58:41.725Z,10.10
2023-03-21T07:02:51.083Z,10.20
2023-03-21T07:06:58.040Z,10.20
2023-03-21T07:11:05.390Z,10.30
2023-03-21T07:15:12.160Z,10.30
2023-03-21T07:19:18.875Z,10.40
2023-03-21T07:23:27.039Z,10.40
2023-03-21T07:27:33.765Z,10.40
2023-03-21T07:31:40.599Z,10.50
2023-03-21T07:35:47.328Z,10.60
2023-03-21T07:39:54.083Z,10.70
2023-03-21T07:44:00.748Z,10.70
2023-03-21T07:48:07.584Z,10.80
2023-03-21T07:52:14.370Z,10.90
2023-03-21T07:56:21.884Z,11.00
2023-03-21T08:00:28.736Z,11.10
2023-03-21T08:04:35.554Z,11.20
2023-03-21T08:08:42.260Z,11.30
2023-03-21T08:12:49.395Z,11.30
2023-03-21T08:16:56.296Z,11.30
2023-03-21T08:21:03.071Z,11.20
2023-03-21T08:25:13.803Z,11.10
2023-03-21T08:29:22.016Z,11.10
2023-03-21T08:33:28.666Z,11.10
2023-03-21T08:37:36.019Z,11.10
2023-03-21T08:41:42.674Z,11.10
2023-03-21T08:45:50.060Z,11.10
2023-03-21T08:49:59.156Z,11.20
2023-03-21T08:54:06.599Z,11.30
2023-03-21T08:58:13.521Z,11.40
2023-03-21T09:02:20.254Z,11.50
2023-03-21T09:06:30.005Z,11.60
2023-03-21T09:10:36.666Z,11.70
2023-03-21T09:14:43.319Z,11.70
2023-03-21T09:18:55.524Z,11.70
2023-03-21T09:23:02.656Z,11.80
2023-03-21T09:27:10.349Z,11.90
2023-03-21T09:31:22.681Z,11.90
2023-03-21T09:35:30.102Z,12.00
2023-03-21T09:39:37.288Z,12.20
2023-03-21T09:44:03.616Z,12.30
2023-03-21T09:48:22.476Z,12.40
2023-03-21T09:52:43.650Z,12.40
2023-03-21T09:56:55.463Z,12.50
2023-03-21T10:01:28.430Z,12.50
2023-03-21T10:05:40.377Z,12.60
2023-03-21T10:09:48.982Z,12.60
2023-03-21T10:14:25.553Z,12.70
2023-03-21T10:18:33.498Z,12.70
2023-03-21T10:22:40.620Z,12.60
2023-03-21T10:26:49.407Z,12.60
2023-03-21T10:30:59.007Z,12.60
2023-03-21T10:35:06.879Z,12.70
2023-03-21T10:39:27.405Z,12.70
2023-03-21T10:43:38.386Z,12.90
2023-03-21T10:47:48.379Z,12.90
2023-03-21T10:52:02.150Z,12.90
2023-03-21T10:56:11.356Z,13.00
2023-03-21T11:00:25.785Z,13.10
2023-03-21T11:04:33.095Z,12.90
2023-03-21T11:08:44.790Z,13.50
2023-03-21T11:12:56.870Z,13.60
2023-03-21T11:17:17.305Z,13.70
2023-03-21T11:21:29.666Z,13.70
2023-03-21T11:25:41.330Z,13.80
2023-03-21T11:29:52.427Z,14.10
2023-03-21T11:34:00.282Z,14.30
2023-03-21T11:38:23.502Z,14.50
2023-03-21T11:42:33.281Z,14.80
2023-03-21T11:46:41.020Z,14.80
2023-03-21T11:50:50.159Z,14.50
2023-03-21T11:55:24.801Z,14.40
2023-03-21T11:59:55.651Z,14.10
2023-03-21T12:04:44.303Z,14.10
2023-03-21T12:09:45.970Z,14.10
2023-03-21T12:14:05.527Z,14.20
2023-03-21T12:18:36.981Z,14.50
2023-03-21T12:22:57.967Z,14.80
2023-03-21T12:27:15.538Z,14.70
2023-03-21T12:31:40.239Z,14.70
2023-03-21T12:36:24.569Z,14.60
2023-03-21T12:41:03.917Z,14.50
2023-03-21T12:45:16.893Z,14.60
2023-03-21T12:49:35.958Z,14.50
2023-03-21T12:53:57.467Z,14.40
2023-03-21T12:58:19.689Z,14.20
2023-03-21T13:02:32.893Z,14.20
2023-03-21T13:06:41.201Z,14.20
2023-03-21T13:10:48.043Z,13.90
2023-03-21T13:15:31.599Z,14.10
2023-03-21T13:19:53.087Z,14.10
2023-03-21T13:24:04.737Z,14.40
2023-03-21T13:28:25.530Z,15.10
2023-03-21T13:32:39.041Z,15.10
2023-03-21T13:36:48.419Z,15.20
2023-03-21T13:41:13.855Z,15.20
2023-03-21T13:45:32.265Z,15.00
2023-03-21T13:49:39.080Z,14.90
2023-03-21T13:54:00.832Z,14.90
2023-03-21T13:58:24.795Z,15.10
2023-03-21T14:02:34.923Z,15.20
2023-03-21T14:06:58.673Z,15.60
2023-03-21T14:11:09.898Z,16.00
2023-03-21T14:15:25.804Z,16.60
2023-03-21T14:19:33.052Z,16.60
2023-03-21T14:23:39.723Z,16.20
2023-03-21T14:27:50.512Z,16.10
2023-03-21T14:31:57.598Z,16.20
2023-03-21T14:36:08.873Z,16.40
2023-03-21T14:40:27.405Z,16.30
2023-03-21T14:44:44.065Z,15.90
2023-03-21T14:48:54.209Z,16.00
2023-03-21T14:53:01.203Z,15.80
2023-03-21T14:57:11.948Z,15.30
2023-03-21T15:01:32.210Z,15.90
2023-03-21T15:05:41.830Z,15.80
2023-03-21T15:09:55.453Z,15.80
2023-03-21T15:14:05.864Z,15.50
2023-03-21T15:18:17.482Z,15.30
2023-03-21T15:22:45.075Z,14.90
2023-03-21T15:27:00.705Z,14.80
2023-03-21T15:31:21.936Z,15.00
2023-03-21T15:35:37.578Z,14.90
2023-03-21T15:39:45.336Z,14.90
2023-03-21T15:44:10.207Z,14.60
2023-03-21T15:48:20.972Z,14.50
2023-03-21T15:52:27.838Z,14.40
2023-03-21T15:56:34.542Z,14.40
2023-03-21T16:00:43.896Z,14.60
2023-03-21T16:04:58.305Z,14.70
2023-03-21T16:09:23.508Z,14.60
2023-03-21T16:13:30.205Z,14.50
2023-03-21T16:17:37.852Z,14.40
2023-03-21T16:21:44.648Z,14.40
2023-03-21T16:25:57.725Z,14.40
2023-03-21T16:30:04.838Z,14.50
2023-03-21T16:34:12.544Z,14.60
2023-03-21T16:38:19.398Z,14.50
2023-03-21T16:42:26.439Z,14.30
2023-03-21T16:46:33.253Z,14.20
2023-03-21T16:50:42.397Z,14.20
2023-03-21T16:54:49.098Z,14.10
2023-03-21T16:58:57.170Z,14.00
2023-03-21T17:03:14.291Z,14.00
2023-03-21T17:07:21.303Z,13.90
2023-03-21T17:11:32.786Z,13.90
2023-03-21T17:15:41.393Z,13.90
2023-03-21T17:19:48.387Z,13.80
2023-03-21T17:23:55.979Z,13.70
2023-03-21T17:28:02.792Z,13.70
2023-03-21T17:32:09.487Z,13.60
2023-03-21T17:36:18.499Z,13.50
2023-03-21T17:40:30.849Z,13.40
2023-03-21T17:44:37.463Z,13.40
2023-03-21T17:48:45.384Z,13.30
2023-03-21T17:52:52.565Z,13.20
2023-03-21T17:56:59.229Z,13.10
2023-03-21T18:01:06.018Z,13.10
2023-03-21T18:05:12.801Z,13.00
2023-03-21T18:09:21.610Z,12.90
2023-03-21T18:13:28.468Z,12.80
2023-03-21T18:17:35.763Z,12.80
2023-03-21T18:21:45.320Z,12.60
2023-03-21T18:25:53.116Z,12.40
2023-03-21T18:30:32.869Z,12.20
2023-03-21T18:34:27.736Z,12.10
2023-03-21T18:38:34.653Z,12.00
2023-03-21T18:43:14.047Z,11.80
2023-03-21T18:47:08.896Z,11.70
2023-03-21T18:51:17.546Z,11.60
2023-03-21T18:55:39.701Z,11.60
2023-03-21T18:59:51.864Z,11.50
2023-03-21T19:04:20.136Z,11.40
2023-03-21T19:08:27.181Z,11.30
2023-03-21T19:12:34.094Z,11.30
2023-03-21T19:17:14.824Z,11.20
2023-03-21T19:21:08.430Z,11.10
2023-03-21T19:25:16.495Z,11.20
2023-03-21T19:29:23.204Z,11.20
2023-03-21T19:33:29.858Z,11.20
2023-03-21T19:37:36.682Z,11.10
2023-03-21T19:41:43.363Z,11.00
2023-03-21T19:45:52.471Z,11.10
2023-03-21T19:54:25.957Z,11.20
2023-03-21T19:58:32.619Z,11.30
2023-03-21T20:02:39.814Z,11.40
2023-03-21T20:06:46.853Z,11.60
2023-03-21T20:10:53.472Z,11.60
2023-03-21T20:15:15.763Z,11.60
2023-03-21T20:19:24.806Z,11.60
2023-03-21T20:23:34.374Z,11.70
2023-03-21T20:27:43.343Z,11.50
2023-03-21T20:31:50.009Z,11.40
2023-03-21T20:40:26.569Z,11.20
2023-03-21T20:44:56.001Z,11.20
2023-03-21T20:49:00.896Z,11.20
2023-03-21T20:53:08.978Z,11.20
2023-03-21T20:57:17.156Z,11.10
2023-03-21T21:01:24.086Z,11.10
2023-03-21T21:05:34.840Z,11.10
2023-03-21T21:09:42.892Z,11.00
2023-03-21T21:13:49.637Z,11.00
2023-03-21T21:18:06.036Z,10.90
2023-03-21T21:22:13.454Z,10.90
2023-03-21T21:26:20.101Z,10.90
2023-03-21T21:30:29.244Z,10.80
2023-03-21T21:34:36.339Z,10.90
2023-03-21T21:38:43.202Z,11.00
2023-03-21T21:42:49.866Z,10.80
2023-03-21T21:46:57.460Z,10.90
2023-03-21T21:51:05.413Z,10.80
2023-03-21T21:55:13.054Z,10.20
2023-03-21T21:59:22.232Z,10.80
2023-03-21T22:03:40.884Z,10.80
2023-03-21T22:07:53.314Z,10.80
2023-03-21T22:11:59.914Z,10.90
2023-03-21T22:16:06.952Z,10.80
2023-03-21T22:20:18.914Z,10.80
2023-03-21T22:24:26.208Z,10.80
2023-03-21T22:28:34.360Z,10.80
2023-03-21T22:32:41.766Z,10.80
2023-03-21T22:36:50.154Z,10.70
2023-03-21T22:40:58.325Z,10.70
2023-03-21T22:45:06.151Z,10.80
2023-03-21T22:49:12.866Z,10.80
2023-03-21T22:53:19.503Z,10.80
2023-03-21T22:57:26.368Z,10.70
2023-03-21T23:01:33.101Z,10.70
2023-03-21T23:05:42.638Z,10.70
2023-03-21T23:09:49.432Z,10.70
2023-03-21T23:14:07.136Z,10.70
2023-03-21T23:18:14.535Z,10.70
2023-03-21T23:22:21.183Z,10.80
2023-03-21T23:26:28.091Z,10.80
2023-03-21T23:30:37.738Z,10.70
2023-03-21T23:34:44.587Z,10.70
2023-03-21T23:38:51.413Z,10.60
2023-03-21T23:42:59.631Z,10.50
2023-03-21T23:47:06.373Z,10.50
2023-03-21T23:51:15.928Z,10.50
2023-03-21T23:55:22.600Z,10.50
2023-03-21T23:59:30.495Z,10.50
